sensor_id;sensor_type;location;lat;lon;timestamp;temperature;humidity
11246;DHT22;59870;50.106;8.580;2024-01-27T13:05:42;11.60;77.90
11246;DHT22;59870;50.106;8.580;2024-01-27T18:17:07;8.40;82.60
11246;DHT22;59870;50.106;8.580;2024-01-27T18:19:39;8.70;82.60
11246;DHT22;59870;50.106;8.580;2024-01-27T18:22:06;8.30;82.00
11246;DHT22;59870;50.106;8.580;2024-01-27T18:27:21;8.30;83.10
11246;DHT22;59870;50.106;8.580;2024-01-27T18:32:59;8.20;83.10
11246;DHT22;59870;50.106;8.580;2024-01-27T18:38:35;8.20;83.80
11246;DHT22;59870;50.106;8.580;2024-01-27T18:50:26;7.90;83.60
11246;DHT22;59870;50.106;8.580;2024-01-27T19:02:24;7.70;84.20
11246;DHT22;59870;50.106;8.580;2024-01-27T19:04:53;7.60;83.40
11246;DHT22;59870;50.106;8.580;2024-01-27T19:07:22;7.90;84.60
11246;DHT22;59870;50.106;8.580;2024-01-27T19:09:51;7.00;83.90
11246;DHT22;59870;50.106;8.580;2024-01-27T19:12:19;7.80;84.60
11246;DHT22;59870;50.106;8.580;2024-01-27T19:14:47;7.80;85.40
11246;DHT22;59870;50.106;8.580;2024-01-27T19:17:15;7.40;84.60
11246;DHT22;59870;50.106;8.580;2024-01-27T19:23:01;7.30;85.30
11246;DHT22;59870;50.106;8.580;2024-01-27T19:25:30;7.70;85.90
11246;DHT22;59870;50.106;8.580;2024-01-27T19:27:58;7.10;85.10
11246;DHT22;59870;50.106;8.580;2024-01-27T19:30:31;7.60;85.80
11246;DHT22;59870;50.106;8.580;2024-01-27T19:39:19;7.10;85.80
11246;DHT22;59870;50.106;8.580;2024-01-27T19:48:57;6.90;85.70
11246;DHT22;59870;50.106;8.580;2024-01-27T19:51:27;6.90;85.50
11246;DHT22;59870;50.106;8.580;2024-01-27T19:53:56;7.00;86.10
11246;DHT22;59870;50.106;8.580;2024-01-27T19:56:50;7.10;86.60
11246;DHT22;59870;50.106;8.580;2024-01-27T20:03:02;6.70;87.20
11246;DHT22;59870;50.106;8.580;2024-01-27T20:05:30;6.70;87.40
11246;DHT22;59870;50.106;8.580;2024-01-27T20:07:59;6.70;87.70
11246;DHT22;59870;50.106;8.580;2024-01-27T20:10:26;7.00;88.00
11246;DHT22;59870;50.106;8.580;2024-01-27T20:12:54;6.60;87.90
11246;DHT22;59870;50.106;8.580;2024-01-27T20:15:24;6.60;88.10
11246;DHT22;59870;50.106;8.580;2024-01-27T20:17:52;6.60;87.90
11246;DHT22;59870;50.106;8.580;2024-01-27T20:20:22;6.60;87.70
11246;DHT22;59870;50.106;8.580;2024-01-27T20:22:52;6.80;87.80
11246;DHT22;59870;50.106;8.580;2024-01-27T20:25:22;6.50;87.40
11246;DHT22;59870;50.106;8.580;2024-01-27T20:27:52;6.80;87.60
11246;DHT22;59870;50.106;8.580;2024-01-27T20:30:20;6.50;88.10
11246;DHT22;59870;50.106;8.580;2024-01-27T20:32:47;6.40;88.60
11246;DHT22;59870;50.106;8.580;2024-01-27T20:35:21;6.40;89.00
11246;DHT22;59870;50.106;8.580;2024-01-27T20:37:52;6.40;88.70
11246;DHT22;59870;50.106;8.580;2024-01-27T20:40:20;6.30;88.50
11246;DHT22;59870;50.106;8.580;2024-01-27T20:42:47;6.30;87.90
11246;DHT22;59870;50.106;8.580;2024-01-27T20:45:19;6.20;88.30
11246;DHT22;59870;50.106;8.580;2024-01-27T20:47:48;6.20;88.20
11246;DHT22;59870;50.106;8.580;2024-01-27T20:53:36;6.10;88.50
11246;DHT22;59870;50.106;8.580;2024-01-27T20:56:05;6.40;88.60
11246;DHT22;59870;50.106;8.580;2024-01-27T20:58:33;5.60;88.20
11246;DHT22;59870;50.106;8.580;2024-01-27T21:01:01;6.30;90.00
11246;DHT22;59870;50.106;8.580;2024-01-27T21:03:29;6.00;89.70
11246;DHT22;59870;50.106;8.580;2024-01-27T21:06:03;6.30;90.10
11246;DHT22;59870;50.106;8.580;2024-01-27T21:11:43;5.90;90.20
11246;DHT22;59870;50.106;8.580;2024-01-27T21:14:12;6.30;90.30
11246;DHT22;59870;50.106;8.580;2024-01-27T21:16:40;5.90;90.30
11246;DHT22;59870;50.106;8.580;2024-01-27T21:19:13;6.30;90.30
11246;DHT22;59870;50.106;8.580;2024-01-27T21:24:48;5.80;91.20
11246;DHT22;59870;50.106;8.580;2024-01-27T21:27:16;5.40;90.90
11246;DHT22;59870;50.106;8.580;2024-01-27T21:29:44;6.10;91.50
11246;DHT22;59870;50.106;8.580;2024-01-27T21:32:12;5.90;91.50
11246;DHT22;59870;50.106;8.580;2024-01-27T21:34:40;6.00;91.80
11246;DHT22;59870;50.106;8.580;2024-01-27T22:01:04;5.60;92.10
11246;DHT22;59870;50.106;8.580;2024-01-27T22:16:42;5.60;92.10
11246;DHT22;59870;50.106;8.580;2024-01-27T22:19:11;5.60;92.10
11246;DHT22;59870;50.106;8.580;2024-01-27T22:21:42;5.20;91.90
11246;DHT22;59870;50.106;8.580;2024-01-27T22:24:11;5.20;92.00
11246;DHT22;59870;50.106;8.580;2024-01-27T22:26:41;6.00;92.50
11246;DHT22;59870;50.106;8.580;2024-01-27T22:29:11;5.60;92.30
11246;DHT22;59870;50.106;8.580;2024-01-27T22:31:41;5.90;92.50
11246;DHT22;59870;50.106;8.580;2024-01-27T22:34:09;5.60;92.40
11246;DHT22;59870;50.106;8.580;2024-01-27T22:46:15;5.50;92.70
11246;DHT22;59870;50.106;8.580;2024-01-27T23:01:20;5.40;93.00
11246;DHT22;59870;50.106;8.580;2024-01-27T23:03:51;5.50;92.80
11246;DHT22;59870;50.106;8.580;2024-01-27T23:06:26;5.40;92.80
11246;DHT22;59870;50.106;8.580;2024-01-27T23:08:56;5.50;92.80
11246;DHT22;59870;50.106;8.580;2024-01-27T23:14:38;5.50;93.20
11246;DHT22;59870;50.106;8.580;2024-01-27T23:17:09;5.50;93.00
11246;DHT22;59870;50.106;8.580;2024-01-27T23:19:38;5.80;93.20
11246;DHT22;59870;50.106;8.580;2024-01-27T23:22:07;5.50;93.00
11246;DHT22;59870;50.106;8.580;2024-01-27T23:24:36;5.80;93.20
11246;DHT22;59870;50.106;8.580;2024-01-27T23:27:05;5.70;93.20
11246;DHT22;59870;50.106;8.580;2024-01-27T23:29:36;5.70;93.30
11246;DHT22;59870;50.106;8.580;2024-01-27T23:32:05;5.80;93.30
11246;DHT22;59870;50.106;8.580;2024-01-27T23:34:36;5.40;93.30
11246;DHT22;59870;50.106;8.580;2024-01-27T23:37:05;5.70;93.40
11246;DHT22;59870;50.106;8.580;2024-01-27T23:39:33;5.50;93.10
11246;DHT22;59870;50.106;8.580;2024-01-27T23:42:01;5.30;93.10
11246;DHT22;59870;50.106;8.580;2024-01-27T23:44:30;5.60;93.30
11246;DHT22;59870;50.106;8.580;2024-01-27T23:46:58;5.60;93.30
11246;DHT22;59870;50.106;8.580;2024-01-27T23:49:27;5.30;93.20
11246;DHT22;59870;50.106;8.580;2024-01-27T23:51:55;5.30;93.20
11246;DHT22;59870;50.106;8.580;2024-01-27T23:54:23;5.20;93.20
11246;DHT22;59870;50.106;8.580;2024-01-27T23:56:51;5.30;93.20
11246;DHT22;59870;50.106;8.580;2024-01-27T23:59:20;5.60;93.20
